createdAt,value
2022-11-12T00:01:10.843Z,8.70
2022-11-12T00:03:38.594Z,8.90
2022-11-12T00:06:06.390Z,8.70
2022-11-12T00:08:34.104Z,9.00
2022-11-12T00:11:01.778Z,8.70
2022-11-12T00:13:29.452Z,9.10
2022-11-12T00:15:57.148Z,8.60
2022-11-12T00:18:26.423Z,8.70
2022-11-12T00:20:54.237Z,8.60
2022-11-12T00:23:21.990Z,8.70
2022-11-12T00:25:58.402Z,8.70
2022-11-12T00:28:26.402Z,8.70
2022-11-12T00:30:54.327Z,8.80
2022-11-12T00:33:22.058Z,8.90
2022-11-12T00:35:51.086Z,9.00
2022-11-12T00:38:18.803Z,8.80
2022-11-12T00:40:46.526Z,8.90
2022-11-12T00:43:14.217Z,9.00
2022-11-12T00:45:43.892Z,8.70
2022-11-12T00:48:11.593Z,8.60
2022-11-12T00:50:39.283Z,8.70
2022-11-12T00:53:08.597Z,8.70
2022-11-12T00:55:36.299Z,8.60
2022-11-12T00:58:03.997Z,8.60
2022-11-12T01:00:31.711Z,8.60
2022-11-12T01:02:59.418Z,8.60
2022-11-12T01:05:27.120Z,8.60
2022-11-12T01:07:56.314Z,8.70
2022-11-12T01:10:25.473Z,8.80
2022-11-12T01:12:53.159Z,8.70
2022-11-12T01:15:20.839Z,9.10
2022-11-12T01:17:48.531Z,8.90
2022-11-12T01:20:16.430Z,8.50
2022-11-12T01:22:44.149Z,8.60
2022-11-12T01:25:11.859Z,8.40
2022-11-12T01:27:40.898Z,8.40
2022-11-12T01:30:10.240Z,8.60
2022-11-12T01:32:38.514Z,8.50
2022-11-12T01:35:06.969Z,8.30
2022-11-12T01:37:34.659Z,8.30
2022-11-12T01:40:02.526Z,8.50
2022-11-12T01:42:32.845Z,8.40
2022-11-12T01:45:01.908Z,8.90
2022-11-12T01:47:32.134Z,8.90
2022-11-12T01:50:15.479Z,8.60
2022-11-12T01:52:47.513Z,8.70
2022-11-12T01:55:19.001Z,8.90
2022-11-12T01:57:52.768Z,8.50
2022-11-12T02:00:22.017Z,8.60
2022-11-12T02:02:55.039Z,9.00
2022-11-12T02:05:24.347Z,8.80
2022-11-12T02:07:53.338Z,8.50
2022-11-12T02:10:21.249Z,8.80
2022-11-12T02:13:11.055Z,8.50
2022-11-12T02:15:41.630Z,8.50
2022-11-12T02:18:09.474Z,8.60
2022-11-12T02:20:38.306Z,8.60
2022-11-12T02:23:09.230Z,8.50
2022-11-12T02:25:37.513Z,8.60
2022-11-12T02:28:07.973Z,8.30
2022-11-12T02:30:38.042Z,8.70
2022-11-12T02:33:05.997Z,8.30
2022-11-12T02:35:34.033Z,8.20
2022-11-12T02:38:01.949Z,8.50
2022-11-12T02:40:31.036Z,8.40
2022-11-12T02:42:59.025Z,8.30
2022-11-12T02:45:27.498Z,8.40
2022-11-12T02:47:55.357Z,8.30
2022-11-12T02:50:23.065Z,8.60
2022-11-12T02:52:50.768Z,8.20
2022-11-12T02:55:18.530Z,8.40
2022-11-12T02:57:47.633Z,8.50
2022-11-12T03:00:15.710Z,8.50
2022-11-12T03:02:43.456Z,8.40
2022-11-12T03:05:11.716Z,8.00
2022-11-12T03:07:40.063Z,8.30
2022-11-12T03:10:09.599Z,8.40
2022-11-12T03:12:37.317Z,8.20
2022-11-12T03:15:07.422Z,8.20
2022-11-12T03:17:35.991Z,8.40
2022-11-12T03:20:03.805Z,8.20
2022-11-12T03:22:31.523Z,8.30
2022-11-12T03:24:59.206Z,8.20
2022-11-12T03:27:27.044Z,8.40
2022-11-12T03:29:54.739Z,8.10
2022-11-12T03:32:24.023Z,8.20
2022-11-12T03:34:55.269Z,8.30
2022-11-12T03:37:23.358Z,8.20
2022-11-12T03:39:51.077Z,8.10
2022-11-12T03:42:18.766Z,8.10
2022-11-12T03:44:46.499Z,8.00
2022-11-12T03:47:14.209Z,8.20
2022-11-12T03:49:43.223Z,8.40
2022-11-12T03:52:10.902Z,8.40
2022-11-12T03:54:38.631Z,8.20
2022-11-12T03:57:06.331Z,7.90
2022-11-12T03:59:34.037Z,8.20
2022-11-12T04:02:01.847Z,8.10
2022-11-12T04:04:49.550Z,8.00
2022-11-12T04:07:36.062Z,8.20
2022-11-12T04:10:03.894Z,8.10
2022-11-12T04:12:49.299Z,8.00
2022-11-12T04:15:17.139Z,8.10
2022-11-12T04:18:04.945Z,8.10
2022-11-12T04:21:02.070Z,8.30
2022-11-12T04:23:31.136Z,8.00
2022-11-12T04:26:16.590Z,8.10
2022-11-12T04:29:04.888Z,8.00
2022-11-12T04:31:31.641Z,8.00
2022-11-12T04:34:19.430Z,7.90
2022-11-12T04:36:47.155Z,8.10
2022-11-12T04:39:16.224Z,8.00
2022-11-12T04:42:01.705Z,8.10
2022-11-12T04:44:46.859Z,7.80
2022-11-12T04:47:14.576Z,7.90
2022-11-12T04:49:42.306Z,8.00
2022-11-12T04:52:10.638Z,7.40
2022-11-12T04:54:39.704Z,7.70
2022-11-12T04:57:07.444Z,7.80
2022-11-12T04:59:35.115Z,8.00
2022-11-12T05:02:02.895Z,7.80
2022-11-12T05:04:30.590Z,7.80
2022-11-12T05:06:58.987Z,7.60
2022-11-12T05:09:28.720Z,7.60
2022-11-12T05:11:57.990Z,7.70
2022-11-12T05:14:25.892Z,7.70
2022-11-12T05:16:53.678Z,7.50
2022-11-12T05:19:21.394Z,7.50
2022-11-12T05:22:08.854Z,7.70
2022-11-12T05:24:42.394Z,8.00
2022-11-12T05:27:14.537Z,7.80
2022-11-12T05:29:42.614Z,7.90
2022-11-12T05:32:12.698Z,7.70
2022-11-12T05:34:40.567Z,7.30
2022-11-12T05:37:09.554Z,7.70
2022-11-12T05:39:37.246Z,7.90
2022-11-12T05:42:12.837Z,7.70
2022-11-12T05:44:42.820Z,7.80
2022-11-12T05:47:10.530Z,7.60
2022-11-12T05:49:38.221Z,7.80
2022-11-12T05:52:06.167Z,8.30
2022-11-12T05:54:33.951Z,7.90
2022-11-12T05:57:01.683Z,8.00
2022-11-12T05:59:29.414Z,8.20
2022-11-12T06:01:58.556Z,7.80
2022-11-12T06:04:26.239Z,7.80
2022-11-12T06:06:53.994Z,7.60
2022-11-12T06:09:21.874Z,7.40
2022-11-12T06:11:49.955Z,7.50
2022-11-12T06:14:17.641Z,7.40
2022-11-12T06:16:45.455Z,7.30
2022-11-12T06:19:14.488Z,7.60
2022-11-12T06:21:42.170Z,7.50
2022-11-12T06:24:12.761Z,7.50
2022-11-12T06:26:40.483Z,7.40
2022-11-12T06:29:08.295Z,7.90
2022-11-12T06:31:35.980Z,7.80
2022-11-12T06:34:03.877Z,7.90
2022-11-12T06:36:33.051Z,7.70
2022-11-12T06:39:00.751Z,7.70
2022-11-12T06:41:28.422Z,7.60
2022-11-12T06:43:56.177Z,7.80
2022-11-12T06:46:23.933Z,7.80
2022-11-12T06:48:51.603Z,7.80
2022-11-12T06:51:21.729Z,7.70
2022-11-12T06:53:51.765Z,7.60
2022-11-12T06:56:19.536Z,7.80
2022-11-12T06:58:47.398Z,7.70
2022-11-12T07:01:17.046Z,7.70
2022-11-12T07:03:45.581Z,7.90
2022-11-12T07:06:18.938Z,8.00
2022-11-12T07:08:47.142Z,7.80
2022-11-12T07:11:16.478Z,8.00
2022-11-12T07:13:45.273Z,7.90
2022-11-12T07:16:18.269Z,7.80
2022-11-12T07:18:47.097Z,7.60
2022-11-12T07:21:16.125Z,7.70
2022-11-12T07:23:44.629Z,7.80
2022-11-12T07:26:16.554Z,7.80
2022-11-12T07:28:44.769Z,8.00
2022-11-12T07:31:14.777Z,8.20
2022-11-12T07:33:43.150Z,8.10
2022-11-12T07:36:12.759Z,7.90
2022-11-12T07:38:41.991Z,7.80
2022-11-12T07:41:11.907Z,8.00
2022-11-12T07:43:42.584Z,7.50
2022-11-12T07:46:12.612Z,7.80
2022-11-12T07:48:41.456Z,7.70
2022-11-12T07:51:12.829Z,7.90
2022-11-12T07:53:40.746Z,7.70
2022-11-12T07:56:11.187Z,7.50
2022-11-12T07:58:40.834Z,7.80
2022-11-12T08:01:09.950Z,7.50
2022-11-12T08:03:38.083Z,7.60
2022-11-12T08:06:06.316Z,7.60
2022-11-12T08:08:34.102Z,7.10
2022-11-12T08:11:01.893Z,7.60
2022-11-12T08:13:29.643Z,7.70
2022-11-12T08:15:59.881Z,7.80
2022-11-12T08:18:28.617Z,7.90
2022-11-12T08:21:01.351Z,7.90
2022-11-12T08:23:29.098Z,7.80
2022-11-12T08:25:59.711Z,8.00
2022-11-12T08:28:29.362Z,8.00
2022-11-12T08:30:59.039Z,7.70
2022-11-12T08:33:26.770Z,7.70
2022-11-12T08:35:54.619Z,8.10
2022-11-12T08:38:22.334Z,8.00
2022-11-12T08:40:51.187Z,7.90
2022-11-12T08:43:19.010Z,8.00
2022-11-12T08:45:48.480Z,8.50
2022-11-12T08:48:17.979Z,7.80
2022-11-12T08:50:45.713Z,8.10
2022-11-12T08:53:14.640Z,7.90
2022-11-12T08:55:42.526Z,8.00
2022-11-12T08:58:10.849Z,8.00
2022-11-12T09:00:40.702Z,7.90
2022-11-12T09:03:13.872Z,7.90
2022-11-12T09:05:43.256Z,7.80
2022-11-12T09:08:13.346Z,7.50
2022-11-12T09:10:42.435Z,7.70
2022-11-12T09:13:10.494Z,7.90
2022-11-12T09:15:39.064Z,7.70
2022-11-12T09:18:08.898Z,7.90
2022-11-12T09:20:36.671Z,8.10
2022-11-12T09:23:07.996Z,8.00
2022-11-12T09:25:36.421Z,8.10
2022-11-12T09:28:08.517Z,7.80
2022-11-12T09:30:36.777Z,8.10
2022-11-12T09:33:04.967Z,7.70
2022-11-12T09:35:32.771Z,7.80
2022-11-12T09:38:00.782Z,7.80
2022-11-12T09:40:40.525Z,7.90
2022-11-12T09:43:19.192Z,7.80
2022-11-12T09:46:06.299Z,8.00
2022-11-12T09:48:40.538Z,8.50
2022-11-12T09:51:15.824Z,8.30
2022-11-12T09:53:49.827Z,8.10
2022-11-12T09:56:21.693Z,7.90
2022-11-12T09:58:49.648Z,8.00
2022-11-12T10:01:20.538Z,8.50
2022-11-12T10:03:55.522Z,8.40
2022-11-12T10:06:25.574Z,8.20
2022-11-12T10:08:55.855Z,8.10
2022-11-12T10:11:57.687Z,8.20
2022-11-12T10:14:46.345Z,8.50
2022-11-12T10:17:24.589Z,8.30
2022-11-12T10:20:02.810Z,8.30
2022-11-12T10:22:41.652Z,8.30
2022-11-12T10:25:15.846Z,8.50
2022-11-12T10:27:46.125Z,8.40
2022-11-12T10:30:17.952Z,8.70
2022-11-12T10:32:47.171Z,8.60
2022-11-12T10:35:18.514Z,8.60
2022-11-12T10:37:51.471Z,8.90
2022-11-12T10:40:33.055Z,8.60
2022-11-12T10:43:06.449Z,8.30
2022-11-12T10:45:34.170Z,8.80
2022-11-12T10:48:01.943Z,8.60
2022-11-12T10:50:32.547Z,8.60
2022-11-12T10:53:03.850Z,8.90
2022-11-12T10:55:32.937Z,8.60
2022-11-12T10:58:19.485Z,9.10
2022-11-12T11:00:54.562Z,8.90
2022-11-12T11:03:24.659Z,9.10
2022-11-12T11:05:56.185Z,9.10
2022-11-12T11:08:36.397Z,8.80
2022-11-12T11:11:22.220Z,9.00
2022-11-12T11:13:55.789Z,9.10
2022-11-12T11:16:26.009Z,8.80
2022-11-12T11:18:57.061Z,8.70
2022-11-12T11:21:42.304Z,8.80
2022-11-12T11:24:26.459Z,8.80
2022-11-12T11:27:01.204Z,8.60
2022-11-12T11:29:56.866Z,9.00
2022-11-12T11:32:40.770Z,9.30
2022-11-12T11:35:20.196Z,9.30
2022-11-12T11:37:58.719Z,9.50
2022-11-12T11:40:30.583Z,9.30
2022-11-12T11:43:24.923Z,9.50
2022-11-12T11:46:08.493Z,9.10
2022-11-12T11:48:50.462Z,9.10
2022-11-12T11:51:34.938Z,9.20
2022-11-12T11:54:14.399Z,9.10
2022-11-12T11:56:44.504Z,9.50
2022-11-12T11:59:25.103Z,9.30
2022-11-12T12:02:23.079Z,9.00
2022-11-12T12:04:52.791Z,8.60
2022-11-12T12:07:29.869Z,9.40
2022-11-12T12:10:09.235Z,8.90
2022-11-12T12:12:47.154Z,9.40
2022-11-12T12:15:41.906Z,9.00
2022-11-12T12:18:18.573Z,9.50
2022-11-12T12:20:53.798Z,9.20
2022-11-12T12:23:27.706Z,9.50
2022-11-12T12:26:00.379Z,9.20
2022-11-12T12:28:37.922Z,9.60
2022-11-12T12:31:12.194Z,9.50
2022-11-12T12:33:50.800Z,9.40
2022-11-12T12:36:22.864Z,9.30
2022-11-12T12:38:54.755Z,9.20
2022-11-12T12:41:27.663Z,9.40
2022-11-12T12:43:59.460Z,9.40
2022-11-12T12:46:29.976Z,9.10
2022-11-12T12:49:00.681Z,8.90
2022-11-12T12:51:31.203Z,9.10
2022-11-12T12:53:59.106Z,9.20
2022-11-12T12:56:48.714Z,9.40
2022-11-12T12:59:24.106Z,9.50
2022-11-12T13:02:00.324Z,9.70
2022-11-12T13:04:54.697Z,9.30
2022-11-12T13:07:41.182Z,9.50
2022-11-12T13:10:48.305Z,9.20
2022-11-12T13:13:32.931Z,9.20
2022-11-12T13:16:01.879Z,9.40
2022-11-12T13:19:02.089Z,9.60
2022-11-12T13:21:31.527Z,9.60
2022-11-12T13:24:11.693Z,9.40
2022-11-12T13:26:57.050Z,9.70
2022-11-12T13:29:46.828Z,9.50
2022-11-12T13:32:38.442Z,9.50
2022-11-12T13:35:28.191Z,9.30
2022-11-12T13:38:00.715Z,9.60
2022-11-12T13:40:40.644Z,9.40
2022-11-12T13:43:14.323Z,9.40
2022-11-12T13:45:46.027Z,9.10
2022-11-12T13:48:18.055Z,9.10
2022-11-12T13:50:52.910Z,9.10
2022-11-12T13:53:25.603Z,9.40
2022-11-12T13:55:54.946Z,9.10
2022-11-12T13:58:29.607Z,9.40
2022-11-12T14:00:59.339Z,9.60
2022-11-12T14:03:30.197Z,9.50
2022-11-12T14:06:02.284Z,9.10
2022-11-12T14:08:56.647Z,9.10
2022-11-12T14:11:50.322Z,9.40
2022-11-12T14:14:29.219Z,9.00
2022-11-12T14:17:05.711Z,8.90
2022-11-12T14:20:21.256Z,8.80
2022-11-12T14:22:49.791Z,9.10
2022-11-12T14:25:21.810Z,8.80
2022-11-12T14:27:50.767Z,9.30
2022-11-12T14:30:23.675Z,9.10
2022-11-12T14:32:58.359Z,8.90
2022-11-12T14:35:33.215Z,9.00
2022-11-12T14:38:06.483Z,9.40
2022-11-12T14:40:38.580Z,9.10
2022-11-12T14:43:07.454Z,9.10
2022-11-12T14:45:35.600Z,9.20
2022-11-12T14:48:03.536Z,9.20
2022-11-12T14:50:39.036Z,9.30
2022-11-12T14:53:17.285Z,8.80
2022-11-12T14:55:50.703Z,8.80
2022-11-12T14:58:20.963Z,9.00
2022-11-12T15:00:50.033Z,8.80
2022-11-12T15:03:21.285Z,9.00
2022-11-12T15:06:08.024Z,8.90
2022-11-12T15:08:37.084Z,8.70
2022-11-12T15:11:22.346Z,8.90
2022-11-12T15:13:52.299Z,8.80
2022-11-12T15:16:24.243Z,8.80
2022-11-12T15:19:09.458Z,9.10
2022-11-12T15:21:37.515Z,8.80
2022-11-12T15:24:08.865Z,8.90
2022-11-12T15:26:40.214Z,8.20
2022-11-12T15:29:20.141Z,8.70
2022-11-12T15:31:49.703Z,8.50
2022-11-12T15:34:33.193Z,8.70
2022-11-12T15:37:05.745Z,8.60
2022-11-12T15:39:39.690Z,8.60
2022-11-12T15:42:17.054Z,8.50
2022-11-12T15:44:45.240Z,8.80
2022-11-12T15:47:19.337Z,8.50
2022-11-12T15:49:52.878Z,8.50
2022-11-12T15:52:21.082Z,8.20
2022-11-12T15:54:51.672Z,8.30
2022-11-12T15:57:23.857Z,8.70
2022-11-12T15:59:56.684Z,8.50
2022-11-12T16:02:24.912Z,8.60
2022-11-12T16:04:53.526Z,8.20
2022-11-12T16:07:21.258Z,8.20
2022-11-12T16:09:48.992Z,8.30
2022-11-12T16:12:17.182Z,8.30
2022-11-12T16:14:46.210Z,8.50
2022-11-12T16:17:16.927Z,8.30
2022-11-12T16:19:44.683Z,8.30
2022-11-12T16:22:13.372Z,7.60
2022-11-12T16:24:41.496Z,8.30
2022-11-12T16:27:11.559Z,8.10
2022-11-12T16:29:39.413Z,8.20
2022-11-12T16:32:12.691Z,8.20
2022-11-12T16:34:40.385Z,8.20
2022-11-12T16:37:12.668Z,8.00
2022-11-12T16:39:40.428Z,8.00
2022-11-12T16:42:10.276Z,8.00
2022-11-12T16:44:37.986Z,8.30
2022-11-12T16:47:06.420Z,8.00
2022-11-12T16:49:38.625Z,7.80
2022-11-12T16:52:06.957Z,8.10
2022-11-12T16:54:34.646Z,8.00
2022-11-12T16:57:02.359Z,7.80
2022-11-12T16:59:30.102Z,7.90
2022-11-12T17:01:57.803Z,8.00
2022-11-12T17:04:25.722Z,7.90
2022-11-12T17:06:54.810Z,8.00
2022-11-12T17:09:22.531Z,7.80
2022-11-12T17:11:50.234Z,8.20
2022-11-12T17:14:18.311Z,7.80
2022-11-12T17:16:46.270Z,8.30
2022-11-12T17:19:14.103Z,8.30
2022-11-12T17:21:44.038Z,8.20
2022-11-12T17:24:13.121Z,8.30
2022-11-12T17:26:40.794Z,8.30
2022-11-12T17:29:08.659Z,8.20
2022-11-12T17:31:36.859Z,8.10
2022-11-12T17:34:06.852Z,8.00
2022-11-12T17:36:38.071Z,8.10
2022-11-12T17:39:13.555Z,8.00
2022-11-12T17:41:41.526Z,8.00
2022-11-12T17:44:09.397Z,7.30
2022-11-12T17:46:37.299Z,7.70
2022-11-12T17:49:04.998Z,7.70
2022-11-12T17:51:32.994Z,8.00
2022-11-12T17:54:00.856Z,7.50
2022-11-12T17:56:35.781Z,8.00
2022-11-12T17:59:05.149Z,8.00
2022-11-12T18:01:34.408Z,7.90
2022-11-12T18:04:02.655Z,8.50
2022-11-12T18:06:33.743Z,8.10
2022-11-12T18:09:02.851Z,8.20
2022-11-12T18:11:38.366Z,8.20
2022-11-12T18:14:07.898Z,8.20
2022-11-12T18:16:36.745Z,8.20
2022-11-12T18:19:05.269Z,8.50
2022-11-12T18:21:33.133Z,8.30
2022-11-12T18:24:00.971Z,8.30
2022-11-12T18:26:28.984Z,8.10
2022-11-12T18:28:59.777Z,8.20
2022-11-12T18:31:29.011Z,8.20
2022-11-12T18:33:57.537Z,8.20
2022-11-12T18:36:26.969Z,8.20
2022-11-12T18:38:55.455Z,8.20
2022-11-12T18:41:25.915Z,8.30
2022-11-12T18:43:54.062Z,8.50
2022-11-12T18:46:23.632Z,8.50
2022-11-12T18:48:51.774Z,8.30
2022-11-12T18:51:20.560Z,8.40
2022-11-12T18:53:48.715Z,8.50
2022-11-12T18:56:18.486Z,8.40
2022-11-12T18:58:46.235Z,8.50
2022-11-12T19:01:16.671Z,8.40
2022-11-12T19:03:45.806Z,8.30
2022-11-12T19:06:14.685Z,8.20
2022-11-12T19:08:43.112Z,8.20
2022-11-12T19:11:12.444Z,8.30
2022-11-12T19:13:41.102Z,8.20
2022-11-12T19:16:11.600Z,8.20
2022-11-12T19:18:40.586Z,8.30
2022-11-12T19:21:11.500Z,8.20
2022-11-12T19:23:39.559Z,8.30
2022-11-12T19:26:08.543Z,8.20
2022-11-12T19:28:36.555Z,8.40
2022-11-12T19:31:05.367Z,8.30
2022-11-12T19:33:34.473Z,8.30
2022-11-12T19:36:06.497Z,8.30
2022-11-12T19:38:36.157Z,8.10
2022-11-12T19:41:05.519Z,8.20
2022-11-12T19:43:33.654Z,8.30
2022-11-12T19:46:02.018Z,8.40
2022-11-12T19:48:31.048Z,8.50
2022-11-12T19:51:01.926Z,8.60
2022-11-12T19:53:31.714Z,8.50
2022-11-12T19:56:02.539Z,8.50
2022-11-12T19:58:31.867Z,8.50
2022-11-12T20:01:05.359Z,8.70
2022-11-12T20:03:33.299Z,8.50
2022-11-12T20:06:02.326Z,8.80
2022-11-12T20:08:30.713Z,8.50
2022-11-12T20:10:58.998Z,8.50
2022-11-12T20:13:29.139Z,8.80
2022-11-12T20:15:57.113Z,8.00
2022-11-12T20:18:25.754Z,8.70
2022-11-12T20:20:56.426Z,8.50
2022-11-12T20:23:26.260Z,8.50
2022-11-12T20:25:55.067Z,8.40
2022-11-12T20:28:23.877Z,8.30
2022-11-12T20:30:53.038Z,8.50
2022-11-12T20:33:22.007Z,8.80
2022-11-12T20:35:49.856Z,8.80
2022-11-12T20:38:17.619Z,8.40
2022-11-12T20:40:45.590Z,8.50
2022-11-12T20:43:13.467Z,8.50
2022-11-12T20:45:42.141Z,8.70
2022-11-12T20:48:11.287Z,8.50
2022-11-12T20:50:41.797Z,8.80
2022-11-12T20:53:28.971Z,8.60
2022-11-12T20:55:57.012Z,8.50
2022-11-12T20:58:25.128Z,8.70
2022-11-12T21:00:53.146Z,8.60
2022-11-12T21:03:22.571Z,8.60
2022-11-12T21:05:50.382Z,8.50
2022-11-12T21:08:18.146Z,8.70
2022-11-12T21:10:49.762Z,8.60
2022-11-12T21:13:18.318Z,8.50
2022-11-12T21:15:46.504Z,8.70
2022-11-12T21:18:14.483Z,8.60
2022-11-12T21:20:43.535Z,8.70
2022-11-12T21:23:11.638Z,8.50
2022-11-12T21:25:40.527Z,8.60
2022-11-12T21:28:08.403Z,8.70
2022-11-12T21:30:36.460Z,8.60
2022-11-12T21:33:04.343Z,8.50
2022-11-12T21:35:32.116Z,8.50
2022-11-12T21:38:01.574Z,8.60
2022-11-12T21:40:29.276Z,8.50
2022-11-12T21:42:57.242Z,8.40
2022-11-12T21:45:25.031Z,8.50
2022-11-12T21:47:54.181Z,8.70
2022-11-12T21:50:21.989Z,8.50
2022-11-12T21:52:49.794Z,8.40
2022-11-12T21:55:18.895Z,8.70
2022-11-12T21:57:46.699Z,8.50
2022-11-12T22:00:40.396Z,8.40
2022-11-12T22:03:03.614Z,8.30
2022-11-12T22:05:31.530Z,8.40
2022-11-12T22:07:59.527Z,8.60
2022-11-12T22:10:28.582Z,8.30
2022-11-12T22:13:24.854Z,8.30
2022-11-12T22:15:44.098Z,8.30
2022-11-12T22:18:11.870Z,8.40
2022-11-12T22:20:39.730Z,8.30
2022-11-12T22:23:07.656Z,8.30
2022-11-12T22:25:36.761Z,8.30
2022-11-12T22:28:04.947Z,8.30
2022-11-12T22:30:32.891Z,8.20
2022-11-12T22:33:01.721Z,8.30
2022-11-12T22:35:29.582Z,8.30
2022-11-12T22:37:57.309Z,8.50
2022-11-12T22:40:25.350Z,8.50
2022-11-12T22:42:55.474Z,8.70
2022-11-12T22:45:23.347Z,8.70
2022-11-12T22:47:51.055Z,8.70
2022-11-12T22:50:19.068Z,8.50
2022-11-12T22:52:50.124Z,8.60
2022-11-12T22:55:18.336Z,8.60
2022-11-12T22:57:46.108Z,8.60
2022-11-12T23:00:16.790Z,8.40
2022-11-12T23:02:47.521Z,8.60
2022-11-12T23:05:15.702Z,8.30
2022-11-12T23:07:43.447Z,8.40
2022-11-12T23:10:11.258Z,8.00
2022-11-12T23:12:39.059Z,8.40
2022-11-12T23:15:08.085Z,8.20
2022-11-12T23:17:37.241Z,8.20
2022-11-12T23:20:05.416Z,8.20
2022-11-12T23:22:33.190Z,8.50
2022-11-12T23:25:01.199Z,8.00
2022-11-12T23:27:30.214Z,8.10
2022-11-12T23:29:57.885Z,8.30
2022-11-12T23:32:25.879Z,8.20
2022-11-12T23:34:54.945Z,8.30
2022-11-12T23:37:22.722Z,8.20
2022-11-12T23:39:50.491Z,8.00
2022-11-12T23:42:18.179Z,8.10
2022-11-12T23:44:46.405Z,8.30
2022-11-12T23:47:14.158Z,8.30
2022-11-12T23:49:41.999Z,7.80
2022-11-12T23:52:11.064Z,8.30
2022-11-12T23:54:38.839Z,8.40
2022-11-12T23:57:06.543Z,8.50
2022-11-12T23:59:34.225Z,8.60
